sensor_id;sensor_type;location;lat;lon;timestamp;P1;durP1;ratioP1;P2;durP2;ratioP2
20758;SDS011;10539;53.686;9.158;2023-06-14T00:01:57;6.90;;;2.50;;
20758;SDS011;10539;53.686;9.158;2023-06-14T00:04:23;8.73;;;2.60;;
20758;SDS011;10539;53.686;9.158;2023-06-14T00:06:50;4.80;;;2.43;;
20758;SDS011;10539;53.686;9.158;2023-06-14T00:09:16;8.53;;;2.60;;
20758;SDS011;10539;53.686;9.158;2023-06-14T00:11:44;7.03;;;2.97;;
20758;SDS011;10539;53.686;9.158;2023-06-14T00:14:10;7.57;;;2.80;;
20758;SDS011;10539;53.686;9.158;2023-06-14T00:16:36;6.93;;;2.77;;
20758;SDS011;10539;53.686;9.158;2023-06-14T00:19:02;6.27;;;2.80;;
20758;SDS011;10539;53.686;9.158;2023-06-14T00:21:31;9.73;;;2.87;;
20758;SDS011;10539;53.686;9.158;2023-06-14T00:23:57;5.37;;;2.50;;
20758;SDS011;10539;53.686;9.158;2023-06-14T00:26:24;5.57;;;2.30;;
20758;SDS011;10539;53.686;9.158;2023-06-14T00:28:51;4.73;;;2.63;;
20758;SDS011;10539;53.686;9.158;2023-06-14T00:31:17;6.10;;;2.33;;
20758;SDS011;10539;53.686;9.158;2023-06-14T00:33:43;7.57;;;3.03;;
20758;SDS011;10539;53.686;9.158;2023-06-14T00:36:09;6.50;;;2.50;;
20758;SDS011;10539;53.686;9.158;2023-06-14T00:38:34;3.67;;;2.77;;
20758;SDS011;10539;53.686;9.158;2023-06-14T00:41:00;9.47;;;2.90;;
20758;SDS011;10539;53.686;9.158;2023-06-14T00:43:26;6.00;;;2.70;;
20758;SDS011;10539;53.686;9.158;2023-06-14T00:45:51;6.43;;;2.80;;
20758;SDS011;10539;53.686;9.158;2023-06-14T00:48:17;4.27;;;2.50;;
20758;SDS011;10539;53.686;9.158;2023-06-14T00:50:44;5.33;;;2.77;;
20758;SDS011;10539;53.686;9.158;2023-06-14T00:53:14;5.00;;;3.03;;
20758;SDS011;10539;53.686;9.158;2023-06-14T00:55:42;5.47;;;2.67;;
20758;SDS011;10539;53.686;9.158;2023-06-14T00:58:08;4.40;;;2.60;;
20758;SDS011;10539;53.686;9.158;2023-06-14T01:00:35;4.87;;;2.90;;
20758;SDS011;10539;53.686;9.158;2023-06-14T01:03:01;6.17;;;2.77;;
20758;SDS011;10539;53.686;9.158;2023-06-14T01:05:28;4.70;;;2.97;;
20758;SDS011;10539;53.686;9.158;2023-06-14T01:13:26;5.70;;;3.00;;
20758;SDS011;10539;53.686;9.158;2023-06-14T01:15:57;6.80;;;3.30;;
20758;SDS011;10539;53.686;9.158;2023-06-14T01:18:23;9.00;;;3.17;;
20758;SDS011;10539;53.686;9.158;2023-06-14T01:20:51;4.70;;;3.13;;
20758;SDS011;10539;53.686;9.158;2023-06-14T01:23:21;8.73;;;3.27;;
20758;SDS011;10539;53.686;9.158;2023-06-14T01:25:48;9.10;;;3.27;;
20758;SDS011;10539;53.686;9.158;2023-06-14T01:28:18;9.20;;;3.33;;
20758;SDS011;10539;53.686;9.158;2023-06-14T01:30:46;9.97;;;3.63;;
20758;SDS011;10539;53.686;9.158;2023-06-14T01:33:21;9.67;;;3.70;;
20758;SDS011;10539;53.686;9.158;2023-06-14T01:35:49;8.10;;;3.67;;
20758;SDS011;10539;53.686;9.158;2023-06-14T01:38:17;9.23;;;3.50;;
20758;SDS011;10539;53.686;9.158;2023-06-14T01:40:46;4.40;;;3.07;;
20758;SDS011;10539;53.686;9.158;2023-06-14T01:43:14;7.47;;;3.60;;
20758;SDS011;10539;53.686;9.158;2023-06-14T01:45:41;8.83;;;3.63;;
20758;SDS011;10539;53.686;9.158;2023-06-14T01:48:08;5.70;;;3.30;;
20758;SDS011;10539;53.686;9.158;2023-06-14T01:50:34;7.53;;;4.10;;
20758;SDS011;10539;53.686;9.158;2023-06-14T01:53:00;11.47;;;3.90;;
20758;SDS011;10539;53.686;9.158;2023-06-14T01:55:26;11.20;;;3.80;;
20758;SDS011;10539;53.686;9.158;2023-06-14T01:57:52;5.80;;;3.30;;
20758;SDS011;10539;53.686;9.158;2023-06-14T02:00:19;9.73;;;4.00;;
20758;SDS011;10539;53.686;9.158;2023-06-14T02:02:46;7.90;;;3.90;;
20758;SDS011;10539;53.686;9.158;2023-06-14T02:05:12;8.43;;;3.93;;
20758;SDS011;10539;53.686;9.158;2023-06-14T02:07:38;7.00;;;3.60;;
20758;SDS011;10539;53.686;9.158;2023-06-14T02:10:04;8.23;;;3.70;;
20758;SDS011;10539;53.686;9.158;2023-06-14T02:12:31;6.70;;;4.23;;
20758;SDS011;10539;53.686;9.158;2023-06-14T02:14:56;10.57;;;4.40;;
20758;SDS011;10539;53.686;9.158;2023-06-14T02:17:23;9.37;;;4.27;;
20758;SDS011;10539;53.686;9.158;2023-06-14T02:19:49;7.30;;;3.80;;
20758;SDS011;10539;53.686;9.158;2023-06-14T02:22:15;10.50;;;4.10;;
20758;SDS011;10539;53.686;9.158;2023-06-14T02:24:42;6.23;;;4.13;;
20758;SDS011;10539;53.686;9.158;2023-06-14T02:27:08;7.23;;;4.20;;
20758;SDS011;10539;53.686;9.158;2023-06-14T02:29:36;9.93;;;4.23;;
20758;SDS011;10539;53.686;9.158;2023-06-14T02:32:03;8.43;;;4.20;;
20758;SDS011;10539;53.686;9.158;2023-06-14T02:34:35;12.77;;;5.00;;
20758;SDS011;10539;53.686;9.158;2023-06-14T02:37:01;9.53;;;4.20;;
20758;SDS011;10539;53.686;9.158;2023-06-14T02:39:30;9.47;;;4.80;;
20758;SDS011;10539;53.686;9.158;2023-06-14T02:41:55;8.50;;;4.60;;
20758;SDS011;10539;53.686;9.158;2023-06-14T02:44:25;7.87;;;4.40;;
20758;SDS011;10539;53.686;9.158;2023-06-14T02:46:54;10.57;;;4.93;;
20758;SDS011;10539;53.686;9.158;2023-06-14T02:49:21;8.07;;;4.57;;
20758;SDS011;10539;53.686;9.158;2023-06-14T02:51:47;11.70;;;4.73;;
20758;SDS011;10539;53.686;9.158;2023-06-14T02:54:13;8.80;;;4.67;;
20758;SDS011;10539;53.686;9.158;2023-06-14T02:56:40;8.57;;;5.07;;
20758;SDS011;10539;53.686;9.158;2023-06-14T02:59:06;7.17;;;4.60;;
20758;SDS011;10539;53.686;9.158;2023-06-14T03:01:32;8.80;;;4.93;;
20758;SDS011;10539;53.686;9.158;2023-06-14T03:04:04;11.10;;;4.37;;
20758;SDS011;10539;53.686;9.158;2023-06-14T03:06:30;7.57;;;5.00;;
20758;SDS011;10539;53.686;9.158;2023-06-14T03:08:59;11.23;;;4.97;;
20758;SDS011;10539;53.686;9.158;2023-06-14T03:11:26;11.13;;;4.43;;
20758;SDS011;10539;53.686;9.158;2023-06-14T03:13:52;10.13;;;4.97;;
20758;SDS011;10539;53.686;9.158;2023-06-14T03:16:18;12.23;;;5.33;;
20758;SDS011;10539;53.686;9.158;2023-06-14T03:18:52;11.63;;;5.27;;
20758;SDS011;10539;53.686;9.158;2023-06-14T03:21:18;10.27;;;5.20;;
20758;SDS011;10539;53.686;9.158;2023-06-14T03:23:45;8.53;;;5.27;;
20758;SDS011;10539;53.686;9.158;2023-06-14T03:26:12;8.60;;;5.20;;
20758;SDS011;10539;53.686;9.158;2023-06-14T03:28:39;8.80;;;4.83;;
20758;SDS011;10539;53.686;9.158;2023-06-14T03:31:07;11.00;;;5.80;;
20758;SDS011;10539;53.686;9.158;2023-06-14T03:33:34;10.40;;;4.80;;
20758;SDS011;10539;53.686;9.158;2023-06-14T03:36:01;9.77;;;5.53;;
20758;SDS011;10539;53.686;9.158;2023-06-14T03:38:27;10.97;;;5.67;;
20758;SDS011;10539;53.686;9.158;2023-06-14T03:40:53;10.70;;;5.50;;
20758;SDS011;10539;53.686;9.158;2023-06-14T03:43:19;16.17;;;5.30;;
20758;SDS011;10539;53.686;9.158;2023-06-14T03:45:44;16.63;;;5.63;;
20758;SDS011;10539;53.686;9.158;2023-06-14T03:48:10;12.40;;;5.63;;
20758;SDS011;10539;53.686;9.158;2023-06-14T03:50:36;13.23;;;5.97;;
20758;SDS011;10539;53.686;9.158;2023-06-14T03:53:03;9.87;;;5.47;;
20758;SDS011;10539;53.686;9.158;2023-06-14T03:55:30;10.23;;;5.47;;
20758;SDS011;10539;53.686;9.158;2023-06-14T03:57:58;13.27;;;5.47;;
20758;SDS011;10539;53.686;9.158;2023-06-14T04:00:24;10.97;;;5.60;;
20758;SDS011;10539;53.686;9.158;2023-06-14T04:02:51;10.30;;;5.47;;
20758;SDS011;10539;53.686;9.158;2023-06-14T04:05:17;11.23;;;5.50;;
20758;SDS011;10539;53.686;9.158;2023-06-14T04:07:44;11.40;;;5.27;;
20758;SDS011;10539;53.686;9.158;2023-06-14T04:10:13;9.03;;;5.40;;
20758;SDS011;10539;53.686;9.158;2023-06-14T04:12:40;10.17;;;5.43;;
20758;SDS011;10539;53.686;9.158;2023-06-14T04:15:06;14.43;;;5.73;;
20758;SDS011;10539;53.686;9.158;2023-06-14T04:17:33;15.90;;;5.93;;
20758;SDS011;10539;53.686;9.158;2023-06-14T04:19:59;13.93;;;6.10;;
20758;SDS011;10539;53.686;9.158;2023-06-14T04:22:26;9.50;;;5.90;;
20758;SDS011;10539;53.686;9.158;2023-06-14T04:24:55;9.17;;;5.30;;
20758;SDS011;10539;53.686;9.158;2023-06-14T04:27:25;14.73;;;5.43;;
20758;SDS011;10539;53.686;9.158;2023-06-14T04:29:52;11.47;;;5.13;;
20758;SDS011;10539;53.686;9.158;2023-06-14T04:32:28;15.50;;;5.60;;
20758;SDS011;10539;53.686;9.158;2023-06-14T04:34:58;8.90;;;5.33;;
20758;SDS011;10539;53.686;9.158;2023-06-14T04:37:27;9.73;;;4.93;;
20758;SDS011;10539;53.686;9.158;2023-06-14T04:39:54;9.63;;;5.17;;
20758;SDS011;10539;53.686;9.158;2023-06-14T04:42:21;12.13;;;5.60;;
20758;SDS011;10539;53.686;9.158;2023-06-14T04:44:50;12.67;;;5.60;;
20758;SDS011;10539;53.686;9.158;2023-06-14T04:47:17;8.37;;;5.53;;
20758;SDS011;10539;53.686;9.158;2023-06-14T04:49:43;15.50;;;6.57;;
20758;SDS011;10539;53.686;9.158;2023-06-14T04:52:09;9.83;;;5.23;;
20758;SDS011;10539;53.686;9.158;2023-06-14T04:54:36;10.30;;;5.33;;
20758;SDS011;10539;53.686;9.158;2023-06-14T04:57:07;10.23;;;5.40;;
20758;SDS011;10539;53.686;9.158;2023-06-14T04:59:33;13.67;;;6.07;;
20758;SDS011;10539;53.686;9.158;2023-06-14T05:02:01;12.20;;;5.27;;
20758;SDS011;10539;53.686;9.158;2023-06-14T05:04:29;10.43;;;6.07;;
20758;SDS011;10539;53.686;9.158;2023-06-14T05:06:57;9.03;;;5.23;;
20758;SDS011;10539;53.686;9.158;2023-06-14T05:09:23;13.30;;;5.70;;
20758;SDS011;10539;53.686;9.158;2023-06-14T05:11:49;12.17;;;5.50;;
20758;SDS011;10539;53.686;9.158;2023-06-14T05:14:15;14.27;;;5.27;;
20758;SDS011;10539;53.686;9.158;2023-06-14T05:16:42;12.43;;;5.60;;
20758;SDS011;10539;53.686;9.158;2023-06-14T05:19:13;10.87;;;4.70;;
20758;SDS011;10539;53.686;9.158;2023-06-14T05:21:45;14.23;;;5.30;;
20758;SDS011;10539;53.686;9.158;2023-06-14T05:24:12;14.77;;;5.67;;
20758;SDS011;10539;53.686;9.158;2023-06-14T05:26:47;8.70;;;4.93;;
20758;SDS011;10539;53.686;9.158;2023-06-14T05:29:18;7.97;;;5.00;;
20758;SDS011;10539;53.686;9.158;2023-06-14T05:31:44;11.63;;;4.87;;
20758;SDS011;10539;53.686;9.158;2023-06-14T05:34:10;13.93;;;5.10;;
20758;SDS011;10539;53.686;9.158;2023-06-14T05:36:36;10.43;;;5.37;;
20758;SDS011;10539;53.686;9.158;2023-06-14T05:39:02;11.77;;;4.83;;
20758;SDS011;10539;53.686;9.158;2023-06-14T05:41:28;10.47;;;5.17;;
20758;SDS011;10539;53.686;9.158;2023-06-14T05:43:55;10.17;;;5.20;;
20758;SDS011;10539;53.686;9.158;2023-06-14T05:46:21;11.80;;;5.97;;
20758;SDS011;10539;53.686;9.158;2023-06-14T05:48:51;16.20;;;5.20;;
20758;SDS011;10539;53.686;9.158;2023-06-14T05:51:17;12.60;;;5.53;;
20758;SDS011;10539;53.686;9.158;2023-06-14T05:53:45;8.53;;;4.43;;
20758;SDS011;10539;53.686;9.158;2023-06-14T05:56:12;11.03;;;4.70;;
20758;SDS011;10539;53.686;9.158;2023-06-14T05:58:38;11.00;;;4.80;;
20758;SDS011;10539;53.686;9.158;2023-06-14T06:01:04;12.60;;;4.87;;
20758;SDS011;10539;53.686;9.158;2023-06-14T06:03:30;12.87;;;4.40;;
20758;SDS011;10539;53.686;9.158;2023-06-14T06:05:55;8.07;;;4.40;;
20758;SDS011;10539;53.686;9.158;2023-06-14T06:08:21;8.03;;;4.17;;
20758;SDS011;10539;53.686;9.158;2023-06-14T06:10:47;11.50;;;4.30;;
20758;SDS011;10539;53.686;9.158;2023-06-14T06:13:13;10.07;;;4.10;;
20758;SDS011;10539;53.686;9.158;2023-06-14T06:15:39;8.63;;;4.13;;
20758;SDS011;10539;53.686;9.158;2023-06-14T06:18:05;11.20;;;4.60;;
20758;SDS011;10539;53.686;9.158;2023-06-14T06:20:35;6.73;;;3.97;;
20758;SDS011;10539;53.686;9.158;2023-06-14T06:23:01;7.80;;;4.33;;
20758;SDS011;10539;53.686;9.158;2023-06-14T06:25:27;9.10;;;3.80;;
20758;SDS011;10539;53.686;9.158;2023-06-14T06:27:54;10.00;;;4.00;;
20758;SDS011;10539;53.686;9.158;2023-06-14T06:30:23;13.43;;;4.40;;
20758;SDS011;10539;53.686;9.158;2023-06-14T06:32:50;9.87;;;4.33;;
20758;SDS011;10539;53.686;9.158;2023-06-14T06:35:19;12.00;;;4.07;;
20758;SDS011;10539;53.686;9.158;2023-06-14T06:37:44;5.40;;;3.67;;
20758;SDS011;10539;53.686;9.158;2023-06-14T06:40:10;8.13;;;3.87;;
20758;SDS011;10539;53.686;9.158;2023-06-14T06:42:36;8.47;;;3.53;;
20758;SDS011;10539;53.686;9.158;2023-06-14T06:45:02;9.47;;;3.23;;
20758;SDS011;10539;53.686;9.158;2023-06-14T06:47:29;6.17;;;3.40;;
20758;SDS011;10539;53.686;9.158;2023-06-14T06:49:55;9.43;;;3.30;;
20758;SDS011;10539;53.686;9.158;2023-06-14T06:52:21;8.73;;;3.10;;
20758;SDS011;10539;53.686;9.158;2023-06-14T06:54:49;7.43;;;3.08;;
20758;SDS011;10539;53.686;9.158;2023-06-14T06:57:15;4.85;;;3.10;;
20758;SDS011;10539;53.686;9.158;2023-06-14T06:59:41;6.70;;;2.90;;
20758;SDS011;10539;53.686;9.158;2023-06-14T07:02:07;3.25;;;2.50;;
20758;SDS011;10539;53.686;9.158;2023-06-14T07:04:35;11.80;;;2.90;;
20758;SDS011;10539;53.686;9.158;2023-06-14T07:07:01;5.00;;;2.95;;
20758;SDS011;10539;53.686;9.158;2023-06-14T07:09:27;4.65;;;2.90;;
20758;SDS011;10539;53.686;9.158;2023-06-14T07:11:52;4.40;;;2.65;;
20758;SDS011;10539;53.686;9.158;2023-06-14T07:14:18;6.05;;;2.97;;
20758;SDS011;10539;53.686;9.158;2023-06-14T07:16:44;6.10;;;2.83;;
20758;SDS011;10539;53.686;9.158;2023-06-14T07:19:11;5.93;;;2.78;;
20758;SDS011;10539;53.686;9.158;2023-06-14T07:21:37;5.78;;;2.50;;
20758;SDS011;10539;53.686;9.158;2023-06-14T07:24:07;6.28;;;2.47;;
20758;SDS011;10539;53.686;9.158;2023-06-14T07:26:33;4.68;;;2.60;;
20758;SDS011;10539;53.686;9.158;2023-06-14T07:29:00;7.82;;;3.10;;
20758;SDS011;10539;53.686;9.158;2023-06-14T07:31:26;8.77;;;3.25;;
20758;SDS011;10539;53.686;9.158;2023-06-14T07:33:53;3.95;;;2.30;;
20758;SDS011;10539;53.686;9.158;2023-06-14T07:36:18;4.60;;;2.47;;
20758;SDS011;10539;53.686;9.158;2023-06-14T07:38:45;3.75;;;2.30;;
20758;SDS011;10539;53.686;9.158;2023-06-14T07:41:13;4.65;;;2.33;;
20758;SDS011;10539;53.686;9.158;2023-06-14T07:43:39;3.42;;;2.13;;
20758;SDS011;10539;53.686;9.158;2023-06-14T07:46:05;5.82;;;2.40;;
20758;SDS011;10539;53.686;9.158;2023-06-14T07:48:31;4.95;;;2.22;;
20758;SDS011;10539;53.686;9.158;2023-06-14T07:50:57;2.97;;;2.00;;
20758;SDS011;10539;53.686;9.158;2023-06-14T07:53:22;6.95;;;2.28;;
20758;SDS011;10539;53.686;9.158;2023-06-14T07:55:48;5.35;;;2.22;;
20758;SDS011;10539;53.686;9.158;2023-06-14T07:58:15;5.78;;;2.72;;
20758;SDS011;10539;53.686;9.158;2023-06-14T08:00:41;4.82;;;2.42;;
20758;SDS011;10539;53.686;9.158;2023-06-14T08:03:07;4.53;;;2.30;;
20758;SDS011;10539;53.686;9.158;2023-06-14T08:05:32;5.50;;;2.50;;
20758;SDS011;10539;53.686;9.158;2023-06-14T08:08:01;4.03;;;2.30;;
20758;SDS011;10539;53.686;9.158;2023-06-14T08:10:27;5.78;;;2.17;;
20758;SDS011;10539;53.686;9.158;2023-06-14T08:12:53;3.97;;;2.33;;
20758;SDS011;10539;53.686;9.158;2023-06-14T08:15:19;9.70;;;2.97;;
20758;SDS011;10539;53.686;9.158;2023-06-14T08:17:45;4.28;;;2.45;;
20758;SDS011;10539;53.686;9.158;2023-06-14T08:20:12;6.07;;;2.42;;
20758;SDS011;10539;53.686;9.158;2023-06-14T08:22:39;6.15;;;2.70;;
20758;SDS011;10539;53.686;9.158;2023-06-14T08:25:07;6.38;;;2.47;;
20758;SDS011;10539;53.686;9.158;2023-06-14T08:27:34;4.28;;;2.13;;
20758;SDS011;10539;53.686;9.158;2023-06-14T08:30:00;8.35;;;2.50;;
20758;SDS011;10539;53.686;9.158;2023-06-14T08:32:27;6.97;;;2.13;;
20758;SDS011;10539;53.686;9.158;2023-06-14T08:34:53;5.28;;;2.45;;
20758;SDS011;10539;53.686;9.158;2023-06-14T08:37:19;5.65;;;2.47;;
20758;SDS011;10539;53.686;9.158;2023-06-14T08:39:45;5.78;;;2.72;;
20758;SDS011;10539;53.686;9.158;2023-06-14T08:42:14;5.28;;;1.90;;
20758;SDS011;10539;53.686;9.158;2023-06-14T08:44:42;7.07;;;2.20;;
20758;SDS011;10539;53.686;9.158;2023-06-14T08:47:07;2.70;;;1.98;;
20758;SDS011;10539;53.686;9.158;2023-06-14T08:49:36;4.80;;;2.30;;
20758;SDS011;10539;53.686;9.158;2023-06-14T08:52:06;3.08;;;1.85;;
20758;SDS011;10539;53.686;9.158;2023-06-14T08:54:35;4.03;;;2.10;;
20758;SDS011;10539;53.686;9.158;2023-06-14T08:57:10;4.65;;;2.15;;
20758;SDS011;10539;53.686;9.158;2023-06-14T08:59:39;5.60;;;2.30;;
20758;SDS011;10539;53.686;9.158;2023-06-14T09:02:11;3.85;;;2.10;;
20758;SDS011;10539;53.686;9.158;2023-06-14T09:04:39;4.55;;;2.08;;
20758;SDS011;10539;53.686;9.158;2023-06-14T09:07:05;7.35;;;2.45;;
20758;SDS011;10539;53.686;9.158;2023-06-14T09:09:31;3.20;;;2.15;;
20758;SDS011;10539;53.686;9.158;2023-06-14T09:11:57;3.75;;;2.58;;
20758;SDS011;10539;53.686;9.158;2023-06-14T09:14:26;4.25;;;1.92;;
20758;SDS011;10539;53.686;9.158;2023-06-14T09:16:52;6.70;;;2.40;;
20758;SDS011;10539;53.686;9.158;2023-06-14T09:19:22;3.97;;;2.35;;
20758;SDS011;10539;53.686;9.158;2023-06-14T09:21:52;3.15;;;2.00;;
20758;SDS011;10539;53.686;9.158;2023-06-14T09:24:18;5.07;;;2.20;;
20758;SDS011;10539;53.686;9.158;2023-06-14T09:26:47;5.20;;;2.20;;
20758;SDS011;10539;53.686;9.158;2023-06-14T09:29:16;2.78;;;1.90;;
20758;SDS011;10539;53.686;9.158;2023-06-14T09:31:47;2.42;;;1.92;;
20758;SDS011;10539;53.686;9.158;2023-06-14T09:34:13;4.40;;;2.15;;
20758;SDS011;10539;53.686;9.158;2023-06-14T09:36:41;4.07;;;1.85;;
20758;SDS011;10539;53.686;9.158;2023-06-14T09:39:07;4.30;;;1.80;;
20758;SDS011;10539;53.686;9.158;2023-06-14T09:44:04;4.32;;;2.00;;
20758;SDS011;10539;53.686;9.158;2023-06-14T09:46:32;4.32;;;2.10;;
20758;SDS011;10539;53.686;9.158;2023-06-14T09:48:58;5.03;;;2.00;;
20758;SDS011;10539;53.686;9.158;2023-06-14T09:51:25;4.65;;;2.05;;
20758;SDS011;10539;53.686;9.158;2023-06-14T09:54:03;4.80;;;2.03;;
20758;SDS011;10539;53.686;9.158;2023-06-14T09:56:34;5.13;;;2.20;;
20758;SDS011;10539;53.686;9.158;2023-06-14T09:59:03;3.85;;;2.10;;
20758;SDS011;10539;53.686;9.158;2023-06-14T10:01:32;6.68;;;1.83;;
20758;SDS011;10539;53.686;9.158;2023-06-14T10:04:02;4.80;;;2.33;;
20758;SDS011;10539;53.686;9.158;2023-06-14T10:06:32;5.20;;;1.80;;
20758;SDS011;10539;53.686;9.158;2023-06-14T10:09:07;5.68;;;2.10;;
20758;SDS011;10539;53.686;9.158;2023-06-14T10:11:35;3.42;;;2.05;;
20758;SDS011;10539;53.686;9.158;2023-06-14T10:14:01;3.35;;;2.17;;
20758;SDS011;10539;53.686;9.158;2023-06-14T10:17:04;3.75;;;2.00;;
20758;SDS011;10539;53.686;9.158;2023-06-14T10:19:37;6.00;;;2.30;;
20758;SDS011;10539;53.686;9.158;2023-06-14T10:22:15;7.38;;;2.00;;
20758;SDS011;10539;53.686;9.158;2023-06-14T10:24:45;5.28;;;2.22;;
20758;SDS011;10539;53.686;9.158;2023-06-14T10:27:13;6.85;;;2.33;;
20758;SDS011;10539;53.686;9.158;2023-06-14T10:32:23;7.95;;;2.22;;
20758;SDS011;10539;53.686;9.158;2023-06-14T10:34:54;3.28;;;1.90;;
20758;SDS011;10539;53.686;9.158;2023-06-14T10:37:21;4.28;;;2.00;;
20758;SDS011;10539;53.686;9.158;2023-06-14T10:39:47;3.75;;;2.00;;
20758;SDS011;10539;53.686;9.158;2023-06-14T10:42:13;5.88;;;2.15;;
20758;SDS011;10539;53.686;9.158;2023-06-14T10:47:07;4.43;;;2.20;;
20758;SDS011;10539;53.686;9.158;2023-06-14T10:52:44;3.35;;;2.00;;
20758;SDS011;10539;53.686;9.158;2023-06-14T10:57:45;5.57;;;2.20;;
20758;SDS011;10539;53.686;9.158;2023-06-14T11:00:14;5.72;;;1.88;;
20758;SDS011;10539;53.686;9.158;2023-06-14T11:05:52;5.97;;;2.20;;
20758;SDS011;10539;53.686;9.158;2023-06-14T11:11:22;4.55;;;2.13;;
20758;SDS011;10539;53.686;9.158;2023-06-14T11:13:48;4.43;;;2.00;;
20758;SDS011;10539;53.686;9.158;2023-06-14T11:16:16;3.85;;;2.10;;
20758;SDS011;10539;53.686;9.158;2023-06-14T11:18:46;4.93;;;2.05;;
20758;SDS011;10539;53.686;9.158;2023-06-14T11:21:17;5.28;;;2.42;;
20758;SDS011;10539;53.686;9.158;2023-06-14T11:23:52;9.95;;;2.22;;
20758;SDS011;10539;53.686;9.158;2023-06-14T11:26:26;6.20;;;2.13;;
20758;SDS011;10539;53.686;9.158;2023-06-14T11:28:59;5.15;;;2.20;;
20758;SDS011;10539;53.686;9.158;2023-06-14T11:31:29;4.93;;;2.20;;
20758;SDS011;10539;53.686;9.158;2023-06-14T11:33:56;6.07;;;2.00;;
20758;SDS011;10539;53.686;9.158;2023-06-14T11:36:23;6.57;;;2.60;;
20758;SDS011;10539;53.686;9.158;2023-06-14T11:41:25;4.97;;;2.38;;
20758;SDS011;10539;53.686;9.158;2023-06-14T11:43:54;3.65;;;2.13;;
20758;SDS011;10539;53.686;9.158;2023-06-14T11:46:19;3.25;;;1.80;;
20758;SDS011;10539;53.686;9.158;2023-06-14T11:48:49;3.75;;;2.28;;
20758;SDS011;10539;53.686;9.158;2023-06-14T11:51:14;4.55;;;2.20;;
20758;SDS011;10539;53.686;9.158;2023-06-14T11:53:42;4.13;;;2.00;;
20758;SDS011;10539;53.686;9.158;2023-06-14T11:56:08;5.93;;;2.30;;
20758;SDS011;10539;53.686;9.158;2023-06-14T11:58:34;4.70;;;2.20;;
20758;SDS011;10539;53.686;9.158;2023-06-14T12:01:05;5.88;;;2.45;;
20758;SDS011;10539;53.686;9.158;2023-06-14T12:03:33;4.10;;;2.25;;
20758;SDS011;10539;53.686;9.158;2023-06-14T12:06:07;4.25;;;2.17;;
20758;SDS011;10539;53.686;9.158;2023-06-14T12:08:36;3.88;;;2.50;;
20758;SDS011;10539;53.686;9.158;2023-06-14T12:11:13;3.83;;;1.95;;
20758;SDS011;10539;53.686;9.158;2023-06-14T12:13:40;3.20;;;1.90;;
20758;SDS011;10539;53.686;9.158;2023-06-14T12:16:10;5.38;;;2.20;;
20758;SDS011;10539;53.686;9.158;2023-06-14T12:18:37;3.72;;;2.10;;
20758;SDS011;10539;53.686;9.158;2023-06-14T12:21:05;4.22;;;2.10;;
20758;SDS011;10539;53.686;9.158;2023-06-14T12:23:45;4.15;;;2.20;;
20758;SDS011;10539;53.686;9.158;2023-06-14T12:26:15;7.75;;;2.65;;
20758;SDS011;10539;53.686;9.158;2023-06-14T12:28:44;4.25;;;2.45;;
20758;SDS011;10539;53.686;9.158;2023-06-14T12:31:11;9.13;;;2.58;;
20758;SDS011;10539;53.686;9.158;2023-06-14T12:33:38;4.80;;;2.00;;
20758;SDS011;10539;53.686;9.158;2023-06-14T12:36:06;4.97;;;2.50;;
20758;SDS011;10539;53.686;9.158;2023-06-14T12:38:33;3.75;;;2.10;;
20758;SDS011;10539;53.686;9.158;2023-06-14T12:41:00;5.18;;;2.40;;
20758;SDS011;10539;53.686;9.158;2023-06-14T12:43:26;2.95;;;2.00;;
20758;SDS011;10539;53.686;9.158;2023-06-14T12:45:52;4.03;;;2.45;;
20758;SDS011;10539;53.686;9.158;2023-06-14T12:48:19;3.38;;;1.85;;
20758;SDS011;10539;53.686;9.158;2023-06-14T12:50:44;5.15;;;2.13;;
20758;SDS011;10539;53.686;9.158;2023-06-14T12:53:10;3.88;;;2.30;;
20758;SDS011;10539;53.686;9.158;2023-06-14T12:55:42;4.30;;;1.92;;
20758;SDS011;10539;53.686;9.158;2023-06-14T12:58:08;6.55;;;1.90;;
20758;SDS011;10539;53.686;9.158;2023-06-14T13:00:34;5.10;;;2.25;;
20758;SDS011;10539;53.686;9.158;2023-06-14T13:03:00;4.32;;;1.90;;
20758;SDS011;10539;53.686;9.158;2023-06-14T13:05:27;2.30;;;1.73;;
20758;SDS011;10539;53.686;9.158;2023-06-14T13:07:52;3.65;;;1.80;;
20758;SDS011;10539;53.686;9.158;2023-06-14T13:10:18;3.60;;;2.10;;
20758;SDS011;10539;53.686;9.158;2023-06-14T13:12:44;11.95;;;2.85;;
20758;SDS011;10539;53.686;9.158;2023-06-14T13:15:10;3.30;;;2.03;;
20758;SDS011;10539;53.686;9.158;2023-06-14T13:17:36;5.03;;;2.08;;
20758;SDS011;10539;53.686;9.158;2023-06-14T13:20:05;6.53;;;1.98;;
20758;SDS011;10539;53.686;9.158;2023-06-14T13:22:39;6.13;;;1.95;;
20758;SDS011;10539;53.686;9.158;2023-06-14T13:25:06;2.28;;;2.05;;
20758;SDS011;10539;53.686;9.158;2023-06-14T13:27:35;3.38;;;1.90;;
20758;SDS011;10539;53.686;9.158;2023-06-14T13:30:01;4.50;;;1.98;;
20758;SDS011;10539;53.686;9.158;2023-06-14T13:32:27;4.75;;;1.60;;
20758;SDS011;10539;53.686;9.158;2023-06-14T13:34:54;4.85;;;1.92;;
20758;SDS011;10539;53.686;9.158;2023-06-14T13:37:20;5.07;;;2.05;;
20758;SDS011;10539;53.686;9.158;2023-06-14T13:39:46;2.90;;;2.05;;
20758;SDS011;10539;53.686;9.158;2023-06-14T13:42:12;4.80;;;1.88;;
20758;SDS011;10539;53.686;9.158;2023-06-14T13:44:37;3.97;;;1.85;;
20758;SDS011;10539;53.686;9.158;2023-06-14T13:47:12;4.45;;;1.95;;
20758;SDS011;10539;53.686;9.158;2023-06-14T13:49:38;2.78;;;1.52;;
20758;SDS011;10539;53.686;9.158;2023-06-14T13:52:04;2.88;;;2.10;;
20758;SDS011;10539;53.686;9.158;2023-06-14T13:54:30;2.28;;;1.70;;
20758;SDS011;10539;53.686;9.158;2023-06-14T13:56:56;2.42;;;1.45;;
20758;SDS011;10539;53.686;9.158;2023-06-14T13:59:24;2.47;;;1.50;;
20758;SDS011;10539;53.686;9.158;2023-06-14T14:01:50;4.28;;;1.95;;
20758;SDS011;10539;53.686;9.158;2023-06-14T14:04:16;3.25;;;1.70;;
20758;SDS011;10539;53.686;9.158;2023-06-14T14:06:47;2.08;;;1.35;;
20758;SDS011;10539;53.686;9.158;2023-06-14T14:09:13;2.67;;;1.70;;
20758;SDS011;10539;53.686;9.158;2023-06-14T14:11:39;3.45;;;2.00;;
20758;SDS011;10539;53.686;9.158;2023-06-14T14:14:06;4.28;;;1.95;;
20758;SDS011;10539;53.686;9.158;2023-06-14T14:16:32;3.70;;;1.80;;
20758;SDS011;10539;53.686;9.158;2023-06-14T14:18:58;3.13;;;1.50;;
20758;SDS011;10539;53.686;9.158;2023-06-14T14:21:24;1.83;;;1.40;;
20758;SDS011;10539;53.686;9.158;2023-06-14T14:23:52;3.70;;;1.40;;
20758;SDS011;10539;53.686;9.158;2023-06-14T14:26:18;3.10;;;1.33;;
20758;SDS011;10539;53.686;9.158;2023-06-14T14:28:44;2.67;;;1.55;;
20758;SDS011;10539;53.686;9.158;2023-06-14T14:31:10;3.65;;;1.60;;
20758;SDS011;10539;53.686;9.158;2023-06-14T14:33:36;4.00;;;1.27;;
20758;SDS011;10539;53.686;9.158;2023-06-14T14:36:02;2.58;;;1.42;;
20758;SDS011;10539;53.686;9.158;2023-06-14T14:38:29;3.38;;;1.75;;
20758;SDS011;10539;53.686;9.158;2023-06-14T14:40:55;4.55;;;1.58;;
20758;SDS011;10539;53.686;9.158;2023-06-14T14:43:23;3.53;;;1.77;;
20758;SDS011;10539;53.686;9.158;2023-06-14T14:45:49;3.50;;;1.55;;
20758;SDS011;10539;53.686;9.158;2023-06-14T14:48:18;6.82;;;1.80;;
20758;SDS011;10539;53.686;9.158;2023-06-14T14:50:44;2.58;;;1.60;;
20758;SDS011;10539;53.686;9.158;2023-06-14T14:53:10;4.20;;;1.80;;
20758;SDS011;10539;53.686;9.158;2023-06-14T14:55:36;2.25;;;1.50;;
20758;SDS011;10539;53.686;9.158;2023-06-14T14:58:03;3.53;;;1.40;;
20758;SDS011;10539;53.686;9.158;2023-06-14T15:00:29;3.15;;;1.67;;
20758;SDS011;10539;53.686;9.158;2023-06-14T15:02:55;8.02;;;2.03;;
20758;SDS011;10539;53.686;9.158;2023-06-14T15:05:20;3.53;;;1.83;;
20758;SDS011;10539;53.686;9.158;2023-06-14T15:07:46;4.93;;;1.80;;
20758;SDS011;10539;53.686;9.158;2023-06-14T15:10:12;3.50;;;1.50;;
20758;SDS011;10539;53.686;9.158;2023-06-14T15:12:38;4.10;;;1.65;;
20758;SDS011;10539;53.686;9.158;2023-06-14T15:15:03;6.22;;;1.85;;